sensor_id;sensor_type;location;lat;lon;timestamp;P1;durP1;ratioP1;P2;durP2;ratioP2
18445;SDS011;9352;50.888;4.466;2022-11-15T00:00:44;31.10;;;17.25;;
18445;SDS011;9352;50.888;4.466;2022-11-15T00:03:12;33.22;;;17.95;;
18445;SDS011;9352;50.888;4.466;2022-11-15T00:05:40;32.17;;;17.23;;
18445;SDS011;9352;50.888;4.466;2022-11-15T00:08:08;33.58;;;17.80;;
18445;SDS011;9352;50.888;4.466;2022-11-15T00:10:35;34.17;;;18.08;;
18445;SDS011;9352;50.888;4.466;2022-11-15T00:13:04;32.67;;;18.73;;
18445;SDS011;9352;50.888;4.466;2022-11-15T00:15:33;31.40;;;17.33;;
18445;SDS011;9352;50.888;4.466;2022-11-15T00:18:01;35.60;;;18.27;;
18445;SDS011;9352;50.888;4.466;2022-11-15T00:20:28;35.53;;;18.67;;
18445;SDS011;9352;50.888;4.466;2022-11-15T00:22:55;31.85;;;17.77;;
18445;SDS011;9352;50.888;4.466;2022-11-15T00:25:24;32.55;;;17.42;;
18445;SDS011;9352;50.888;4.466;2022-11-15T00:27:54;35.00;;;18.45;;
18445;SDS011;9352;50.888;4.466;2022-11-15T00:30:21;40.67;;;18.95;;
18445;SDS011;9352;50.888;4.466;2022-11-15T00:32:48;43.20;;;20.13;;
18445;SDS011;9352;50.888;4.466;2022-11-15T00:35:15;36.88;;;20.70;;
18445;SDS011;9352;50.888;4.466;2022-11-15T00:37:42;41.13;;;19.73;;
18445;SDS011;9352;50.888;4.466;2022-11-15T00:40:10;37.22;;;20.23;;
18445;SDS011;9352;50.888;4.466;2022-11-15T00:42:39;37.78;;;20.58;;
18445;SDS011;9352;50.888;4.466;2022-11-15T00:45:06;37.03;;;19.80;;
18445;SDS011;9352;50.888;4.466;2022-11-15T00:47:34;43.75;;;20.75;;
18445;SDS011;9352;50.888;4.466;2022-11-15T00:50:00;44.75;;;21.48;;
18445;SDS011;9352;50.888;4.466;2022-11-15T00:52:27;42.55;;;21.00;;
18445;SDS011;9352;50.888;4.466;2022-11-15T00:54:54;37.55;;;19.75;;
18445;SDS011;9352;50.888;4.466;2022-11-15T00:57:21;41.53;;;21.20;;
18445;SDS011;9352;50.888;4.466;2022-11-15T00:59:49;39.83;;;20.13;;
18445;SDS011;9352;50.888;4.466;2022-11-15T01:02:16;42.50;;;20.13;;
18445;SDS011;9352;50.888;4.466;2022-11-15T01:04:43;39.78;;;20.23;;
18445;SDS011;9352;50.888;4.466;2022-11-15T01:07:10;45.33;;;20.60;;
18445;SDS011;9352;50.888;4.466;2022-11-15T01:09:38;41.35;;;20.38;;
18445;SDS011;9352;50.888;4.466;2022-11-15T01:12:05;43.83;;;20.95;;
18445;SDS011;9352;50.888;4.466;2022-11-15T01:14:32;39.08;;;20.55;;
18445;SDS011;9352;50.888;4.466;2022-11-15T01:17:00;43.25;;;21.08;;
18445;SDS011;9352;50.888;4.466;2022-11-15T01:19:27;43.47;;;22.10;;
18445;SDS011;9352;50.888;4.466;2022-11-15T01:21:53;43.40;;;22.05;;
18445;SDS011;9352;50.888;4.466;2022-11-15T01:24:21;50.88;;;23.25;;
18445;SDS011;9352;50.888;4.466;2022-11-15T01:26:47;44.00;;;22.25;;
18445;SDS011;9352;50.888;4.466;2022-11-15T01:29:14;50.25;;;23.48;;
18445;SDS011;9352;50.888;4.466;2022-11-15T01:31:41;46.20;;;22.33;;
18445;SDS011;9352;50.888;4.466;2022-11-15T01:34:09;46.55;;;22.55;;
18445;SDS011;9352;50.888;4.466;2022-11-15T01:36:36;44.80;;;22.75;;
18445;SDS011;9352;50.888;4.466;2022-11-15T01:39:03;47.95;;;22.95;;
18445;SDS011;9352;50.888;4.466;2022-11-15T01:41:30;44.92;;;23.08;;
18445;SDS011;9352;50.888;4.466;2022-11-15T01:46:55;46.00;;;21.15;;
18445;SDS011;9352;50.888;4.466;2022-11-15T01:49:23;46.33;;;21.02;;
18445;SDS011;9352;50.888;4.466;2022-11-15T01:51:53;54.13;;;21.60;;
18445;SDS011;9352;50.888;4.466;2022-11-15T01:54:21;42.60;;;19.70;;
18445;SDS011;9352;50.888;4.466;2022-11-15T01:56:50;39.38;;;20.35;;
18445;SDS011;9352;50.888;4.466;2022-11-15T01:59:21;38.45;;;18.75;;
18445;SDS011;9352;50.888;4.466;2022-11-15T02:01:49;36.38;;;18.88;;
18445;SDS011;9352;50.888;4.466;2022-11-15T02:04:18;38.45;;;19.38;;
18445;SDS011;9352;50.888;4.466;2022-11-15T02:06:50;31.85;;;17.42;;
18445;SDS011;9352;50.888;4.466;2022-11-15T02:09:17;32.05;;;16.75;;
18445;SDS011;9352;50.888;4.466;2022-11-15T02:11:44;31.67;;;15.82;;
18445;SDS011;9352;50.888;4.466;2022-11-15T02:14:12;28.85;;;15.30;;
18445;SDS011;9352;50.888;4.466;2022-11-15T02:16:42;33.55;;;16.15;;
18445;SDS011;9352;50.888;4.466;2022-11-15T02:19:21;30.08;;;15.88;;
18445;SDS011;9352;50.888;4.466;2022-11-15T02:22:09;29.02;;;14.50;;
18445;SDS011;9352;50.888;4.466;2022-11-15T02:24:50;26.52;;;14.70;;
18445;SDS011;9352;50.888;4.466;2022-11-15T02:30:39;29.13;;;14.27;;
18445;SDS011;9352;50.888;4.466;2022-11-15T02:33:11;29.80;;;14.48;;
18445;SDS011;9352;50.888;4.466;2022-11-15T02:35:48;27.27;;;15.20;;
18445;SDS011;9352;50.888;4.466;2022-11-15T02:38:25;27.42;;;15.65;;
18445;SDS011;9352;50.888;4.466;2022-11-15T02:40:58;25.98;;;15.07;;
18445;SDS011;9352;50.888;4.466;2022-11-15T02:43:29;32.65;;;16.27;;
18445;SDS011;9352;50.888;4.466;2022-11-15T02:46:22;31.23;;;15.95;;
18445;SDS011;9352;50.888;4.466;2022-11-15T02:49:07;30.08;;;16.02;;
18445;SDS011;9352;50.888;4.466;2022-11-15T02:51:36;34.88;;;16.63;;
18445;SDS011;9352;50.888;4.466;2022-11-15T02:54:04;28.63;;;14.65;;
18445;SDS011;9352;50.888;4.466;2022-11-15T02:56:31;28.00;;;15.10;;
18445;SDS011;9352;50.888;4.466;2022-11-15T02:59:01;28.95;;;14.88;;
18445;SDS011;9352;50.888;4.466;2022-11-15T03:01:44;27.73;;;14.70;;
18445;SDS011;9352;50.888;4.466;2022-11-15T03:04:22;28.80;;;14.23;;
18445;SDS011;9352;50.888;4.466;2022-11-15T03:07:00;28.38;;;13.80;;
18445;SDS011;9352;50.888;4.466;2022-11-15T03:09:33;34.50;;;14.57;;
18445;SDS011;9352;50.888;4.466;2022-11-15T03:12:03;32.13;;;15.18;;
18445;SDS011;9352;50.888;4.466;2022-11-15T03:14:34;31.23;;;13.88;;
18445;SDS011;9352;50.888;4.466;2022-11-15T03:17:07;25.90;;;12.52;;
18445;SDS011;9352;50.888;4.466;2022-11-15T03:19:43;24.33;;;11.95;;
18445;SDS011;9352;50.888;4.466;2022-11-15T03:22:14;24.55;;;11.85;;
18445;SDS011;9352;50.888;4.466;2022-11-15T03:24:42;25.60;;;12.77;;
18445;SDS011;9352;50.888;4.466;2022-11-15T03:27:12;21.05;;;11.27;;
18445;SDS011;9352;50.888;4.466;2022-11-15T03:29:43;24.52;;;10.80;;
18445;SDS011;9352;50.888;4.466;2022-11-15T03:32:15;19.33;;;10.75;;
18445;SDS011;9352;50.888;4.466;2022-11-15T03:34:46;23.55;;;10.57;;
18445;SDS011;9352;50.888;4.466;2022-11-15T03:37:17;20.17;;;10.10;;
18445;SDS011;9352;50.888;4.466;2022-11-15T03:39:48;21.80;;;10.10;;
18445;SDS011;9352;50.888;4.466;2022-11-15T03:42:17;19.40;;;9.02;;
18445;SDS011;9352;50.888;4.466;2022-11-15T03:44:51;22.52;;;8.50;;
18445;SDS011;9352;50.888;4.466;2022-11-15T03:47:25;19.92;;;8.93;;
18445;SDS011;9352;50.888;4.466;2022-11-15T03:49:57;22.52;;;8.60;;
18445;SDS011;9352;50.888;4.466;2022-11-15T03:52:30;15.07;;;7.80;;
18445;SDS011;9352;50.888;4.466;2022-11-15T03:54:58;19.10;;;7.78;;
18445;SDS011;9352;50.888;4.466;2022-11-15T03:57:27;15.68;;;7.22;;
18445;SDS011;9352;50.888;4.466;2022-11-15T03:59:54;19.35;;;7.53;;
18445;SDS011;9352;50.888;4.466;2022-11-15T04:02:21;13.30;;;7.35;;
18445;SDS011;9352;50.888;4.466;2022-11-15T04:04:49;16.30;;;7.72;;
18445;SDS011;9352;50.888;4.466;2022-11-15T04:07:16;14.80;;;7.97;;
18445;SDS011;9352;50.888;4.466;2022-11-15T04:09:43;17.75;;;7.20;;
18445;SDS011;9352;50.888;4.466;2022-11-15T04:12:28;13.02;;;7.30;;
18445;SDS011;9352;50.888;4.466;2022-11-15T04:14:59;16.50;;;7.38;;
18445;SDS011;9352;50.888;4.466;2022-11-15T04:17:36;16.40;;;7.32;;
18445;SDS011;9352;50.888;4.466;2022-11-15T04:20:07;14.40;;;7.25;;
18445;SDS011;9352;50.888;4.466;2022-11-15T04:22:54;12.45;;;7.25;;
18445;SDS011;9352;50.888;4.466;2022-11-15T04:25:39;15.60;;;6.50;;
18445;SDS011;9352;50.888;4.466;2022-11-15T04:28:07;11.48;;;6.40;;
18445;SDS011;9352;50.888;4.466;2022-11-15T04:30:33;13.00;;;6.05;;
18445;SDS011;9352;50.888;4.466;2022-11-15T04:33:00;11.48;;;6.35;;
18445;SDS011;9352;50.888;4.466;2022-11-15T04:35:29;11.65;;;6.95;;
18445;SDS011;9352;50.888;4.466;2022-11-15T04:37:56;15.05;;;6.53;;
18445;SDS011;9352;50.888;4.466;2022-11-15T04:40:23;9.93;;;6.22;;
18445;SDS011;9352;50.888;4.466;2022-11-15T04:42:49;19.83;;;6.32;;
18445;SDS011;9352;50.888;4.466;2022-11-15T04:45:16;14.90;;;6.40;;
18445;SDS011;9352;50.888;4.466;2022-11-15T04:47:43;9.50;;;6.60;;
18445;SDS011;9352;50.888;4.466;2022-11-15T04:50:11;17.20;;;7.28;;
18445;SDS011;9352;50.888;4.466;2022-11-15T04:52:40;11.70;;;6.68;;
18445;SDS011;9352;50.888;4.466;2022-11-15T04:55:08;12.90;;;6.35;;
18445;SDS011;9352;50.888;4.466;2022-11-15T04:57:35;18.17;;;6.75;;
18445;SDS011;9352;50.888;4.466;2022-11-15T05:00:03;17.73;;;7.40;;
18445;SDS011;9352;50.888;4.466;2022-11-15T05:02:31;12.88;;;7.13;;
18445;SDS011;9352;50.888;4.466;2022-11-15T05:05:12;16.27;;;7.25;;
18445;SDS011;9352;50.888;4.466;2022-11-15T05:07:40;14.13;;;7.28;;
18445;SDS011;9352;50.888;4.466;2022-11-15T05:10:08;18.85;;;7.80;;
18445;SDS011;9352;50.888;4.466;2022-11-15T05:12:35;18.38;;;6.97;;
18445;SDS011;9352;50.888;4.466;2022-11-15T05:15:02;10.90;;;6.85;;
18445;SDS011;9352;50.888;4.466;2022-11-15T05:17:29;16.08;;;6.80;;
18445;SDS011;9352;50.888;4.466;2022-11-15T05:19:56;16.25;;;7.50;;
18445;SDS011;9352;50.888;4.466;2022-11-15T05:22:23;18.65;;;8.48;;
18445;SDS011;9352;50.888;4.466;2022-11-15T05:24:51;21.65;;;8.40;;
18445;SDS011;9352;50.888;4.466;2022-11-15T05:27:18;31.25;;;11.40;;
18445;SDS011;9352;50.888;4.466;2022-11-15T05:29:45;21.25;;;7.18;;
18445;SDS011;9352;50.888;4.466;2022-11-15T05:32:12;16.60;;;7.32;;
18445;SDS011;9352;50.888;4.466;2022-11-15T05:34:39;15.88;;;7.80;;
18445;SDS011;9352;50.888;4.466;2022-11-15T05:37:06;11.45;;;6.55;;
18445;SDS011;9352;50.888;4.466;2022-11-15T05:39:33;17.55;;;6.10;;
18445;SDS011;9352;50.888;4.466;2022-11-15T05:42:02;17.52;;;5.43;;
18445;SDS011;9352;50.888;4.466;2022-11-15T05:44:34;13.05;;;5.35;;
18445;SDS011;9352;50.888;4.466;2022-11-15T05:47:04;12.48;;;5.57;;
18445;SDS011;9352;50.888;4.466;2022-11-15T05:49:34;27.55;;;5.97;;
18445;SDS011;9352;50.888;4.466;2022-11-15T05:52:05;22.25;;;6.65;;
18445;SDS011;9352;50.888;4.466;2022-11-15T05:54:33;13.10;;;5.53;;
18445;SDS011;9352;50.888;4.466;2022-11-15T05:57:03;20.42;;;7.45;;
18445;SDS011;9352;50.888;4.466;2022-11-15T05:59:31;17.85;;;6.90;;
18445;SDS011;9352;50.888;4.466;2022-11-15T06:01:59;41.10;;;15.75;;
18445;SDS011;9352;50.888;4.466;2022-11-15T06:04:26;30.10;;;10.73;;
18445;SDS011;9352;50.888;4.466;2022-11-15T06:06:53;30.23;;;10.82;;
18445;SDS011;9352;50.888;4.466;2022-11-15T06:09:20;25.33;;;10.43;;
18445;SDS011;9352;50.888;4.466;2022-11-15T06:11:47;25.77;;;10.10;;
18445;SDS011;9352;50.888;4.466;2022-11-15T06:14:15;25.23;;;8.93;;
18445;SDS011;9352;50.888;4.466;2022-11-15T06:16:43;17.55;;;6.85;;
18445;SDS011;9352;50.888;4.466;2022-11-15T06:19:10;14.00;;;6.10;;
18445;SDS011;9352;50.888;4.466;2022-11-15T06:21:37;33.15;;;10.95;;
18445;SDS011;9352;50.888;4.466;2022-11-15T06:24:04;25.35;;;9.57;;
18445;SDS011;9352;50.888;4.466;2022-11-15T06:26:32;37.38;;;13.07;;
18445;SDS011;9352;50.888;4.466;2022-11-15T06:28:59;47.53;;;15.63;;
18445;SDS011;9352;50.888;4.466;2022-11-15T06:31:27;44.72;;;14.70;;
18445;SDS011;9352;50.888;4.466;2022-11-15T06:33:54;20.25;;;9.50;;
18445;SDS011;9352;50.888;4.466;2022-11-15T06:36:21;18.23;;;7.90;;
18445;SDS011;9352;50.888;4.466;2022-11-15T06:38:48;19.80;;;9.18;;
18445;SDS011;9352;50.888;4.466;2022-11-15T06:41:15;22.20;;;10.80;;
18445;SDS011;9352;50.888;4.466;2022-11-15T06:43:42;22.05;;;9.65;;
18445;SDS011;9352;50.888;4.466;2022-11-15T06:46:09;19.52;;;8.77;;
18445;SDS011;9352;50.888;4.466;2022-11-15T06:48:38;17.35;;;8.57;;
18445;SDS011;9352;50.888;4.466;2022-11-15T06:51:05;20.25;;;7.47;;
18445;SDS011;9352;50.888;4.466;2022-11-15T06:53:33;20.35;;;7.60;;
18445;SDS011;9352;50.888;4.466;2022-11-15T06:56:00;15.88;;;7.00;;
18445;SDS011;9352;50.888;4.466;2022-11-15T06:58:27;22.25;;;6.90;;
18445;SDS011;9352;50.888;4.466;2022-11-15T07:00:58;14.32;;;6.28;;
18445;SDS011;9352;50.888;4.466;2022-11-15T07:03:26;17.13;;;6.60;;
18445;SDS011;9352;50.888;4.466;2022-11-15T07:05:55;24.30;;;8.27;;
18445;SDS011;9352;50.888;4.466;2022-11-15T07:08:23;22.40;;;7.38;;
18445;SDS011;9352;50.888;4.466;2022-11-15T07:10:53;20.65;;;6.13;;
18445;SDS011;9352;50.888;4.466;2022-11-15T07:13:20;22.30;;;8.10;;
18445;SDS011;9352;50.888;4.466;2022-11-15T07:15:50;13.85;;;7.20;;
18445;SDS011;9352;50.888;4.466;2022-11-15T07:18:17;25.35;;;7.90;;
18445;SDS011;9352;50.888;4.466;2022-11-15T07:20:44;26.60;;;7.70;;
18445;SDS011;9352;50.888;4.466;2022-11-15T07:23:12;25.88;;;7.03;;
18445;SDS011;9352;50.888;4.466;2022-11-15T07:25:39;14.60;;;6.32;;
18445;SDS011;9352;50.888;4.466;2022-11-15T07:28:07;22.15;;;6.40;;
18445;SDS011;9352;50.888;4.466;2022-11-15T07:30:33;14.98;;;5.90;;
18445;SDS011;9352;50.888;4.466;2022-11-15T07:33:00;12.27;;;5.95;;
18445;SDS011;9352;50.888;4.466;2022-11-15T07:35:28;19.10;;;5.95;;
18445;SDS011;9352;50.888;4.466;2022-11-15T07:37:56;14.98;;;5.53;;
18445;SDS011;9352;50.888;4.466;2022-11-15T07:40:25;12.52;;;5.75;;
18445;SDS011;9352;50.888;4.466;2022-11-15T07:42:54;13.75;;;5.93;;
18445;SDS011;9352;50.888;4.466;2022-11-15T07:45:25;11.57;;;5.93;;
18445;SDS011;9352;50.888;4.466;2022-11-15T07:47:52;13.60;;;5.60;;
18445;SDS011;9352;50.888;4.466;2022-11-15T07:50:19;12.73;;;5.22;;
18445;SDS011;9352;50.888;4.466;2022-11-15T07:52:46;11.18;;;5.70;;
18445;SDS011;9352;50.888;4.466;2022-11-15T07:55:13;13.00;;;5.70;;
18445;SDS011;9352;50.888;4.466;2022-11-15T07:57:41;14.68;;;5.60;;
18445;SDS011;9352;50.888;4.466;2022-11-15T08:00:09;13.80;;;6.05;;
18445;SDS011;9352;50.888;4.466;2022-11-15T08:02:36;11.13;;;5.15;;
18445;SDS011;9352;50.888;4.466;2022-11-15T08:05:03;15.98;;;5.07;;
18445;SDS011;9352;50.888;4.466;2022-11-15T08:07:31;9.60;;;4.82;;
18445;SDS011;9352;50.888;4.466;2022-11-15T08:09:57;9.50;;;4.43;;
18445;SDS011;9352;50.888;4.466;2022-11-15T08:12:26;7.30;;;4.53;;
18445;SDS011;9352;50.888;4.466;2022-11-15T08:14:55;9.05;;;4.03;;
18445;SDS011;9352;50.888;4.466;2022-11-15T08:17:22;7.30;;;3.83;;
18445;SDS011;9352;50.888;4.466;2022-11-15T08:19:49;11.05;;;3.47;;
18445;SDS011;9352;50.888;4.466;2022-11-15T08:22:16;4.78;;;3.50;;
18445;SDS011;9352;50.888;4.466;2022-11-15T08:24:43;6.20;;;3.65;;
18445;SDS011;9352;50.888;4.466;2022-11-15T08:27:10;9.77;;;3.40;;
18445;SDS011;9352;50.888;4.466;2022-11-15T08:29:41;5.75;;;3.10;;
18445;SDS011;9352;50.888;4.466;2022-11-15T08:32:10;13.60;;;3.15;;
18445;SDS011;9352;50.888;4.466;2022-11-15T08:34:37;5.60;;;2.80;;
18445;SDS011;9352;50.888;4.466;2022-11-15T08:37:05;8.98;;;3.33;;
18445;SDS011;9352;50.888;4.466;2022-11-15T08:39:32;6.88;;;3.03;;
18445;SDS011;9352;50.888;4.466;2022-11-15T08:41:59;10.77;;;2.88;;
18445;SDS011;9352;50.888;4.466;2022-11-15T08:44:26;10.40;;;3.40;;
18445;SDS011;9352;50.888;4.466;2022-11-15T08:46:53;10.25;;;2.95;;
18445;SDS011;9352;50.888;4.466;2022-11-15T08:49:21;8.23;;;3.05;;
18445;SDS011;9352;50.888;4.466;2022-11-15T08:51:48;7.00;;;3.08;;
18445;SDS011;9352;50.888;4.466;2022-11-15T08:54:14;8.85;;;2.95;;
18445;SDS011;9352;50.888;4.466;2022-11-15T08:56:41;5.95;;;2.70;;
18445;SDS011;9352;50.888;4.466;2022-11-15T08:59:08;8.63;;;2.50;;
18445;SDS011;9352;50.888;4.466;2022-11-15T09:01:35;5.43;;;2.60;;
18445;SDS011;9352;50.888;4.466;2022-11-15T09:04:02;8.85;;;2.85;;
18445;SDS011;9352;50.888;4.466;2022-11-15T09:06:31;8.55;;;2.20;;
18445;SDS011;9352;50.888;4.466;2022-11-15T09:08:58;7.38;;;2.17;;
18445;SDS011;9352;50.888;4.466;2022-11-15T09:11:26;9.27;;;2.33;;
18445;SDS011;9352;50.888;4.466;2022-11-15T09:13:53;5.35;;;1.80;;
18445;SDS011;9352;50.888;4.466;2022-11-15T09:16:21;8.63;;;2.28;;
18445;SDS011;9352;50.888;4.466;2022-11-15T09:18:48;5.97;;;2.60;;
18445;SDS011;9352;50.888;4.466;2022-11-15T09:21:14;4.85;;;1.98;;
18445;SDS011;9352;50.888;4.466;2022-11-15T09:23:43;10.48;;;2.83;;
18445;SDS011;9352;50.888;4.466;2022-11-15T09:26:10;9.25;;;2.25;;
18445;SDS011;9352;50.888;4.466;2022-11-15T09:28:36;5.53;;;1.70;;
18445;SDS011;9352;50.888;4.466;2022-11-15T09:31:06;6.82;;;2.50;;
18445;SDS011;9352;50.888;4.466;2022-11-15T09:33:34;4.78;;;1.90;;
18445;SDS011;9352;50.888;4.466;2022-11-15T09:36:01;8.73;;;2.17;;
18445;SDS011;9352;50.888;4.466;2022-11-15T09:38:30;6.00;;;1.95;;
18445;SDS011;9352;50.888;4.466;2022-11-15T09:41:13;5.80;;;2.30;;
18445;SDS011;9352;50.888;4.466;2022-11-15T09:44:07;7.53;;;2.15;;
18445;SDS011;9352;50.888;4.466;2022-11-15T09:46:44;11.98;;;1.75;;
18445;SDS011;9352;50.888;4.466;2022-11-15T09:49:18;7.38;;;2.08;;
18445;SDS011;9352;50.888;4.466;2022-11-15T09:51:47;7.55;;;1.98;;
18445;SDS011;9352;50.888;4.466;2022-11-15T09:54:19;8.68;;;2.08;;
18445;SDS011;9352;50.888;4.466;2022-11-15T09:56:55;3.97;;;1.70;;
18445;SDS011;9352;50.888;4.466;2022-11-15T09:59:26;10.40;;;1.73;;
18445;SDS011;9352;50.888;4.466;2022-11-15T10:02:08;6.63;;;1.90;;
18445;SDS011;9352;50.888;4.466;2022-11-15T10:04:45;4.45;;;1.70;;
18445;SDS011;9352;50.888;4.466;2022-11-15T10:07:13;8.95;;;2.45;;
18445;SDS011;9352;50.888;4.466;2022-11-15T10:09:46;8.05;;;1.90;;
18445;SDS011;9352;50.888;4.466;2022-11-15T10:12:19;9.93;;;1.70;;
18445;SDS011;9352;50.888;4.466;2022-11-15T10:14:46;11.82;;;1.90;;
18445;SDS011;9352;50.888;4.466;2022-11-15T10:17:18;10.43;;;2.13;;
18445;SDS011;9352;50.888;4.466;2022-11-15T10:20:06;8.73;;;1.73;;
18445;SDS011;9352;50.888;4.466;2022-11-15T10:22:44;7.40;;;1.73;;
18445;SDS011;9352;50.888;4.466;2022-11-15T10:25:18;6.70;;;1.65;;
18445;SDS011;9352;50.888;4.466;2022-11-15T10:27:52;6.93;;;1.95;;
18445;SDS011;9352;50.888;4.466;2022-11-15T10:30:21;8.93;;;1.90;;
18445;SDS011;9352;50.888;4.466;2022-11-15T10:32:48;6.72;;;1.80;;
18445;SDS011;9352;50.888;4.466;2022-11-15T10:35:19;7.88;;;2.28;;
18445;SDS011;9352;50.888;4.466;2022-11-15T10:37:49;4.22;;;1.63;;
18445;SDS011;9352;50.888;4.466;2022-11-15T10:40:17;6.90;;;1.70;;
18445;SDS011;9352;50.888;4.466;2022-11-15T10:42:46;7.20;;;1.98;;
18445;SDS011;9352;50.888;4.466;2022-11-15T10:45:25;7.38;;;1.77;;
18445;SDS011;9352;50.888;4.466;2022-11-15T10:47:54;9.10;;;1.98;;
18445;SDS011;9352;50.888;4.466;2022-11-15T10:50:50;6.75;;;1.70;;
18445;SDS011;9352;50.888;4.466;2022-11-15T10:53:23;4.78;;;1.35;;
18445;SDS011;9352;50.888;4.466;2022-11-15T10:55:56;8.13;;;1.67;;
18445;SDS011;9352;50.888;4.466;2022-11-15T10:58:30;5.28;;;1.52;;
18445;SDS011;9352;50.888;4.466;2022-11-15T11:01:18;7.72;;;1.60;;
18445;SDS011;9352;50.888;4.466;2022-11-15T11:03:57;4.68;;;2.08;;
18445;SDS011;9352;50.888;4.466;2022-11-15T11:06:25;8.82;;;2.63;;
18445;SDS011;9352;50.888;4.466;2022-11-15T11:08:53;8.07;;;1.95;;
18445;SDS011;9352;50.888;4.466;2022-11-15T11:11:22;6.97;;;2.10;;
18445;SDS011;9352;50.888;4.466;2022-11-15T11:13:49;11.77;;;1.88;;
18445;SDS011;9352;50.888;4.466;2022-11-15T11:19:15;12.60;;;2.85;;
18445;SDS011;9352;50.888;4.466;2022-11-15T11:22:00;6.18;;;2.13;;
18445;SDS011;9352;50.888;4.466;2022-11-15T11:24:32;4.22;;;1.73;;
18445;SDS011;9352;50.888;4.466;2022-11-15T11:27:13;8.32;;;1.70;;
18445;SDS011;9352;50.888;4.466;2022-11-15T11:30:03;6.45;;;1.67;;
18445;SDS011;9352;50.888;4.466;2022-11-15T11:32:40;7.97;;;1.73;;
18445;SDS011;9352;50.888;4.466;2022-11-15T11:35:23;11.60;;;2.25;;
18445;SDS011;9352;50.888;4.466;2022-11-15T11:38:01;14.80;;;2.67;;
18445;SDS011;9352;50.888;4.466;2022-11-15T11:40:39;6.47;;;1.77;;
18445;SDS011;9352;50.888;4.466;2022-11-15T11:43:12;10.20;;;1.38;;
18445;SDS011;9352;50.888;4.466;2022-11-15T11:45:56;11.73;;;1.80;;
18445;SDS011;9352;50.888;4.466;2022-11-15T11:48:37;13.90;;;2.17;;
18445;SDS011;9352;50.888;4.466;2022-11-15T11:51:11;11.82;;;2.05;;
18445;SDS011;9352;50.888;4.466;2022-11-15T11:53:45;11.43;;;3.03;;
18445;SDS011;9352;50.888;4.466;2022-11-15T11:56:21;3.67;;;2.10;;
18445;SDS011;9352;50.888;4.466;2022-11-15T11:58:52;4.85;;;1.80;;
18445;SDS011;9352;50.888;4.466;2022-11-15T12:01:23;6.65;;;1.60;;
18445;SDS011;9352;50.888;4.466;2022-11-15T12:03:54;8.52;;;1.80;;
18445;SDS011;9352;50.888;4.466;2022-11-15T12:06:27;2.35;;;1.30;;
18445;SDS011;9352;50.888;4.466;2022-11-15T12:09:00;5.28;;;1.58;;
18445;SDS011;9352;50.888;4.466;2022-11-15T12:11:35;4.80;;;1.75;;
18445;SDS011;9352;50.888;4.466;2022-11-15T12:14:11;7.65;;;1.80;;
18445;SDS011;9352;50.888;4.466;2022-11-15T12:16:45;4.70;;;1.67;;
18445;SDS011;9352;50.888;4.466;2022-11-15T12:19:13;3.78;;;1.70;;
18445;SDS011;9352;50.888;4.466;2022-11-15T12:21:43;5.88;;;1.48;;
18445;SDS011;9352;50.888;4.466;2022-11-15T12:24:13;7.00;;;1.70;;
18445;SDS011;9352;50.888;4.466;2022-11-15T12:26:46;7.53;;;1.40;;
18445;SDS011;9352;50.888;4.466;2022-11-15T12:29:16;7.43;;;2.10;;
18445;SDS011;9352;50.888;4.466;2022-11-15T12:31:48;12.57;;;2.63;;
18445;SDS011;9352;50.888;4.466;2022-11-15T12:34:36;5.13;;;1.63;;
18445;SDS011;9352;50.888;4.466;2022-11-15T12:40:32;5.78;;;1.88;;
18445;SDS011;9352;50.888;4.466;2022-11-15T12:43:37;4.18;;;1.70;;
18445;SDS011;9352;50.888;4.466;2022-11-15T12:46:10;8.27;;;1.77;;
18445;SDS011;9352;50.888;4.466;2022-11-15T12:54:51;7.20;;;1.70;;
18445;SDS011;9352;50.888;4.466;2022-11-15T12:57:32;6.30;;;1.70;;
18445;SDS011;9352;50.888;4.466;2022-11-15T13:03:24;9.57;;;2.03;;
18445;SDS011;9352;50.888;4.466;2022-11-15T13:05:57;5.65;;;1.90;;
18445;SDS011;9352;50.888;4.466;2022-11-15T13:08:37;7.05;;;2.00;;
18445;SDS011;9352;50.888;4.466;2022-11-15T13:17:16;11.65;;;1.85;;
18445;SDS011;9352;50.888;4.466;2022-11-15T13:20:01;6.28;;;1.90;;
18445;SDS011;9352;50.888;4.466;2022-11-15T13:22:44;4.05;;;1.80;;
18445;SDS011;9352;50.888;4.466;2022-11-15T13:25:27;3.92;;;1.90;;
18445;SDS011;9352;50.888;4.466;2022-11-15T13:28:20;4.57;;;2.13;;
18445;SDS011;9352;50.888;4.466;2022-11-15T13:30:51;4.20;;;2.30;;
18445;SDS011;9352;50.888;4.466;2022-11-15T13:33:21;10.98;;;2.40;;
18445;SDS011;9352;50.888;4.466;2022-11-15T13:35:51;5.07;;;2.22;;
18445;SDS011;9352;50.888;4.466;2022-11-15T13:38:25;12.25;;;2.00;;
18445;SDS011;9352;50.888;4.466;2022-11-15T13:40:53;10.13;;;1.90;;
18445;SDS011;9352;50.888;4.466;2022-11-15T13:43:34;10.25;;;1.67;;
18445;SDS011;9352;50.888;4.466;2022-11-15T13:46:05;5.22;;;2.13;;
18445;SDS011;9352;50.888;4.466;2022-11-15T13:48:42;8.60;;;2.30;;
18445;SDS011;9352;50.888;4.466;2022-11-15T13:51:13;6.00;;;1.90;;
18445;SDS011;9352;50.888;4.466;2022-11-15T13:53:45;2.80;;;1.70;;
18445;SDS011;9352;50.888;4.466;2022-11-15T13:56:15;4.93;;;2.30;;
18445;SDS011;9352;50.888;4.466;2022-11-15T13:58:44;5.70;;;2.08;;
18445;SDS011;9352;50.888;4.466;2022-11-15T14:01:14;6.25;;;2.00;;
18445;SDS011;9352;50.888;4.466;2022-11-15T14:03:49;3.47;;;1.92;;
18445;SDS011;9352;50.888;4.466;2022-11-15T14:06:20;5.80;;;2.10;;
18445;SDS011;9352;50.888;4.466;2022-11-15T14:09:00;5.68;;;1.83;;
18445;SDS011;9352;50.888;4.466;2022-11-15T14:11:51;9.63;;;2.08;;
18445;SDS011;9352;50.888;4.466;2022-11-15T14:14:21;7.63;;;2.05;;
18445;SDS011;9352;50.888;4.466;2022-11-15T14:16:49;3.60;;;1.60;;
18445;SDS011;9352;50.888;4.466;2022-11-15T14:19:34;5.07;;;2.00;;
18445;SDS011;9352;50.888;4.466;2022-11-15T14:22:12;4.43;;;1.90;;
18445;SDS011;9352;50.888;4.466;2022-11-15T14:24:41;4.93;;;1.85;;
18445;SDS011;9352;50.888;4.466;2022-11-15T14:27:17;2.33;;;1.63;;
18445;SDS011;9352;50.888;4.466;2022-11-15T14:29:46;5.47;;;1.90;;
18445;SDS011;9352;50.888;4.466;2022-11-15T14:32:15;4.75;;;1.65;;
18445;SDS011;9352;50.888;4.466;2022-11-15T14:34:44;4.25;;;1.85;;
18445;SDS011;9352;50.888;4.466;2022-11-15T14:37:21;2.17;;;1.77;;
18445;SDS011;9352;50.888;4.466;2022-11-15T14:39:50;5.70;;;2.28;;
18445;SDS011;9352;50.888;4.466;2022-11-15T14:42:17;5.20;;;2.00;;
18445;SDS011;9352;50.888;4.466;2022-11-15T14:44:46;1.88;;;1.77;;
18445;SDS011;9352;50.888;4.466;2022-11-15T14:47:13;3.20;;;1.90;;
18445;SDS011;9352;50.888;4.466;2022-11-15T14:49:40;4.45;;;2.20;;
18445;SDS011;9352;50.888;4.466;2022-11-15T14:52:11;3.58;;;1.75;;
18445;SDS011;9352;50.888;4.466;2022-11-15T14:54:49;3.20;;;1.92;;
18445;SDS011;9352;50.888;4.466;2022-11-15T14:57:16;4.75;;;1.60;;
18445;SDS011;9352;50.888;4.466;2022-11-15T14:59:43;4.10;;;1.90;;
18445;SDS011;9352;50.888;4.466;2022-11-15T15:02:14;5.00;;;2.05;;
18445;SDS011;9352;50.888;4.466;2022-11-15T15:04:44;3.60;;;1.85;;
18445;SDS011;9352;50.888;4.466;2022-11-15T15:07:11;6.18;;;1.88;;
18445;SDS011;9352;50.888;4.466;2022-11-15T15:09:38;3.05;;;1.80;;
18445;SDS011;9352;50.888;4.466;2022-11-15T15:12:09;4.72;;;1.90;;
18445;SDS011;9352;50.888;4.466;2022-11-15T15:14:43;2.55;;;2.00;;
18445;SDS011;9352;50.888;4.466;2022-11-15T15:17:10;6.53;;;2.35;;
18445;SDS011;9352;50.888;4.466;2022-11-15T15:19:38;5.13;;;2.10;;
18445;SDS011;9352;50.888;4.466;2022-11-15T15:22:06;4.82;;;2.10;;
18445;SDS011;9352;50.888;4.466;2022-11-15T15:24:39;5.05;;;2.15;;
18445;SDS011;9352;50.888;4.466;2022-11-15T15:27:06;4.90;;;2.10;;
18445;SDS011;9352;50.888;4.466;2022-11-15T15:29:33;2.30;;;2.08;;
18445;SDS011;9352;50.888;4.466;2022-11-15T15:32:00;2.22;;;2.05;;
18445;SDS011;9352;50.888;4.466;2022-11-15T15:34:27;5.97;;;2.40;;
18445;SDS011;9352;50.888;4.466;2022-11-15T15:37:07;7.13;;;2.38;;
18445;SDS011;9352;50.888;4.466;2022-11-15T15:39:35;2.97;;;2.40;;